sensor_id;sensor_type;location;lat;lon;timestamp;P1;durP1;ratioP1;P2;durP2;ratioP2
15202;SDS011;7702;51.046;5.184;2023-03-11T00:02:09;6.87;;;2.20;;
15202;SDS011;7702;51.046;5.184;2023-03-11T00:04:35;8.27;;;2.13;;
15202;SDS011;7702;51.046;5.184;2023-03-11T00:07:00;4.23;;;1.73;;
15202;SDS011;7702;51.046;5.184;2023-03-11T00:09:26;8.77;;;2.40;;
15202;SDS011;7702;51.046;5.184;2023-03-11T00:11:52;5.87;;;2.57;;
15202;SDS011;7702;51.046;5.184;2023-03-11T00:14:18;7.97;;;3.07;;
15202;SDS011;7702;51.046;5.184;2023-03-11T00:16:44;9.33;;;2.53;;
15202;SDS011;7702;51.046;5.184;2023-03-11T00:19:09;8.17;;;2.17;;
15202;SDS011;7702;51.046;5.184;2023-03-11T00:21:35;7.30;;;2.63;;
15202;SDS011;7702;51.046;5.184;2023-03-11T00:24:01;5.97;;;2.20;;
15202;SDS011;7702;51.046;5.184;2023-03-11T00:26:27;3.57;;;1.90;;
15202;SDS011;7702;51.046;5.184;2023-03-11T00:28:53;6.03;;;2.50;;
15202;SDS011;7702;51.046;5.184;2023-03-11T00:31:19;5.13;;;2.37;;
15202;SDS011;7702;51.046;5.184;2023-03-11T00:33:45;9.80;;;5.80;;
15202;SDS011;7702;51.046;5.184;2023-03-11T00:36:19;13.93;;;4.67;;
15202;SDS011;7702;51.046;5.184;2023-03-11T00:38:56;11.23;;;4.80;;
15202;SDS011;7702;51.046;5.184;2023-03-11T00:41:22;8.13;;;3.87;;
15202;SDS011;7702;51.046;5.184;2023-03-11T00:43:48;8.13;;;3.20;;
15202;SDS011;7702;51.046;5.184;2023-03-11T00:46:13;9.60;;;3.77;;
15202;SDS011;7702;51.046;5.184;2023-03-11T00:48:39;8.83;;;3.57;;
15202;SDS011;7702;51.046;5.184;2023-03-11T00:51:13;9.80;;;3.03;;
15202;SDS011;7702;51.046;5.184;2023-03-11T00:53:39;6.17;;;3.10;;
15202;SDS011;7702;51.046;5.184;2023-03-11T00:56:06;8.57;;;3.20;;
15202;SDS011;7702;51.046;5.184;2023-03-11T00:58:33;6.80;;;3.73;;
15202;SDS011;7702;51.046;5.184;2023-03-11T01:01:00;9.97;;;3.07;;
15202;SDS011;7702;51.046;5.184;2023-03-11T01:03:30;9.13;;;3.27;;
15202;SDS011;7702;51.046;5.184;2023-03-11T01:05:56;7.17;;;3.30;;
15202;SDS011;7702;51.046;5.184;2023-03-11T01:08:21;6.43;;;2.80;;
15202;SDS011;7702;51.046;5.184;2023-03-11T01:10:47;3.33;;;2.67;;
15202;SDS011;7702;51.046;5.184;2023-03-11T01:13:13;6.30;;;3.20;;
15202;SDS011;7702;51.046;5.184;2023-03-11T01:15:38;11.87;;;3.10;;
15202;SDS011;7702;51.046;5.184;2023-03-11T01:18:05;7.17;;;2.70;;
15202;SDS011;7702;51.046;5.184;2023-03-11T01:20:31;6.80;;;2.97;;
15202;SDS011;7702;51.046;5.184;2023-03-11T01:22:56;7.80;;;2.97;;
15202;SDS011;7702;51.046;5.184;2023-03-11T01:25:22;8.07;;;3.00;;
15202;SDS011;7702;51.046;5.184;2023-03-11T01:27:48;7.57;;;3.07;;
15202;SDS011;7702;51.046;5.184;2023-03-11T01:30:16;5.87;;;2.73;;
15202;SDS011;7702;51.046;5.184;2023-03-11T01:32:44;11.20;;;3.00;;
15202;SDS011;7702;51.046;5.184;2023-03-11T01:35:15;8.40;;;2.90;;
15202;SDS011;7702;51.046;5.184;2023-03-11T01:37:42;9.63;;;3.27;;
15202;SDS011;7702;51.046;5.184;2023-03-11T01:40:10;11.10;;;3.47;;
15202;SDS011;7702;51.046;5.184;2023-03-11T01:42:44;6.90;;;3.03;;
15202;SDS011;7702;51.046;5.184;2023-03-11T01:45:28;6.07;;;2.80;;
15202;SDS011;7702;51.046;5.184;2023-03-11T01:48:01;9.90;;;3.00;;
15202;SDS011;7702;51.046;5.184;2023-03-11T01:50:29;5.30;;;2.47;;
15202;SDS011;7702;51.046;5.184;2023-03-11T01:53:02;9.37;;;2.90;;
15202;SDS011;7702;51.046;5.184;2023-03-11T01:55:30;5.63;;;2.73;;
15202;SDS011;7702;51.046;5.184;2023-03-11T01:57:57;7.80;;;2.57;;
15202;SDS011;7702;51.046;5.184;2023-03-11T02:00:23;7.03;;;3.30;;
15202;SDS011;7702;51.046;5.184;2023-03-11T02:02:53;8.40;;;3.50;;
15202;SDS011;7702;51.046;5.184;2023-03-11T02:05:21;3.60;;;2.67;;
15202;SDS011;7702;51.046;5.184;2023-03-11T02:07:48;5.10;;;2.73;;
15202;SDS011;7702;51.046;5.184;2023-03-11T02:10:15;6.90;;;2.87;;
15202;SDS011;7702;51.046;5.184;2023-03-11T02:12:42;5.93;;;2.77;;
15202;SDS011;7702;51.046;5.184;2023-03-11T02:15:10;6.50;;;2.70;;
15202;SDS011;7702;51.046;5.184;2023-03-11T02:17:37;8.20;;;2.80;;
15202;SDS011;7702;51.046;5.184;2023-03-11T02:22:36;6.43;;;2.60;;
15202;SDS011;7702;51.046;5.184;2023-03-11T02:28:09;4.80;;;2.33;;
15202;SDS011;7702;51.046;5.184;2023-03-11T02:30:38;6.17;;;3.00;;
15202;SDS011;7702;51.046;5.184;2023-03-11T02:33:06;7.27;;;2.33;;
15202;SDS011;7702;51.046;5.184;2023-03-11T02:35:32;5.17;;;2.83;;
15202;SDS011;7702;51.046;5.184;2023-03-11T02:37:58;5.47;;;3.03;;
15202;SDS011;7702;51.046;5.184;2023-03-11T02:42:58;6.07;;;3.10;;
15202;SDS011;7702;51.046;5.184;2023-03-11T02:45:27;8.87;;;3.40;;
15202;SDS011;7702;51.046;5.184;2023-03-11T02:47:55;8.17;;;2.67;;
15202;SDS011;7702;51.046;5.184;2023-03-11T02:50:22;3.37;;;2.50;;
15202;SDS011;7702;51.046;5.184;2023-03-11T02:52:52;4.00;;;2.70;;
15202;SDS011;7702;51.046;5.184;2023-03-11T02:55:18;4.97;;;2.53;;
15202;SDS011;7702;51.046;5.184;2023-03-11T02:57:45;8.00;;;3.07;;
15202;SDS011;7702;51.046;5.184;2023-03-11T03:00:12;8.20;;;2.50;;
15202;SDS011;7702;51.046;5.184;2023-03-11T03:02:41;6.10;;;2.63;;
15202;SDS011;7702;51.046;5.184;2023-03-11T03:05:08;7.60;;;2.70;;
15202;SDS011;7702;51.046;5.184;2023-03-11T03:07:34;7.13;;;3.10;;
15202;SDS011;7702;51.046;5.184;2023-03-11T03:10:00;8.47;;;3.20;;
15202;SDS011;7702;51.046;5.184;2023-03-11T03:12:26;6.60;;;2.57;;
15202;SDS011;7702;51.046;5.184;2023-03-11T03:14:52;8.27;;;3.20;;
15202;SDS011;7702;51.046;5.184;2023-03-11T03:17:18;8.63;;;3.03;;
15202;SDS011;7702;51.046;5.184;2023-03-11T03:19:43;7.90;;;2.83;;
15202;SDS011;7702;51.046;5.184;2023-03-11T03:22:09;6.57;;;2.83;;
15202;SDS011;7702;51.046;5.184;2023-03-11T03:24:35;6.83;;;3.00;;
15202;SDS011;7702;51.046;5.184;2023-03-11T03:27:01;8.20;;;3.07;;
15202;SDS011;7702;51.046;5.184;2023-03-11T03:29:27;5.93;;;2.60;;
15202;SDS011;7702;51.046;5.184;2023-03-11T03:31:53;6.07;;;2.60;;
15202;SDS011;7702;51.046;5.184;2023-03-11T03:34:19;8.07;;;2.53;;
15202;SDS011;7702;51.046;5.184;2023-03-11T03:36:45;5.90;;;2.47;;
15202;SDS011;7702;51.046;5.184;2023-03-11T03:39:10;6.03;;;2.67;;
15202;SDS011;7702;51.046;5.184;2023-03-11T03:41:36;7.67;;;2.63;;
15202;SDS011;7702;51.046;5.184;2023-03-11T03:44:02;6.43;;;2.97;;
15202;SDS011;7702;51.046;5.184;2023-03-11T03:46:27;7.27;;;2.87;;
15202;SDS011;7702;51.046;5.184;2023-03-11T03:48:53;6.23;;;2.70;;
15202;SDS011;7702;51.046;5.184;2023-03-11T03:51:19;5.23;;;2.60;;
15202;SDS011;7702;51.046;5.184;2023-03-11T03:53:44;5.27;;;2.53;;
15202;SDS011;7702;51.046;5.184;2023-03-11T03:56:12;6.23;;;2.47;;
15202;SDS011;7702;51.046;5.184;2023-03-11T03:58:39;8.13;;;3.03;;
15202;SDS011;7702;51.046;5.184;2023-03-11T04:01:06;6.10;;;2.60;;
15202;SDS011;7702;51.046;5.184;2023-03-11T04:03:32;6.73;;;3.47;;
15202;SDS011;7702;51.046;5.184;2023-03-11T04:08:31;8.03;;;2.90;;
15202;SDS011;7702;51.046;5.184;2023-03-11T04:10:57;5.67;;;2.93;;
15202;SDS011;7702;51.046;5.184;2023-03-11T04:13:23;6.73;;;2.57;;
15202;SDS011;7702;51.046;5.184;2023-03-11T04:15:48;8.37;;;2.83;;
15202;SDS011;7702;51.046;5.184;2023-03-11T04:18:14;7.87;;;2.87;;
15202;SDS011;7702;51.046;5.184;2023-03-11T04:20:40;6.50;;;2.87;;
15202;SDS011;7702;51.046;5.184;2023-03-11T04:23:05;6.60;;;2.80;;
15202;SDS011;7702;51.046;5.184;2023-03-11T04:25:31;3.43;;;2.30;;
15202;SDS011;7702;51.046;5.184;2023-03-11T04:27:58;10.87;;;3.43;;
15202;SDS011;7702;51.046;5.184;2023-03-11T04:30:24;7.33;;;3.00;;
15202;SDS011;7702;51.046;5.184;2023-03-11T04:32:50;7.27;;;3.17;;
15202;SDS011;7702;51.046;5.184;2023-03-11T04:35:15;6.30;;;2.90;;
15202;SDS011;7702;51.046;5.184;2023-03-11T04:37:41;5.57;;;3.07;;
15202;SDS011;7702;51.046;5.184;2023-03-11T04:40:07;8.00;;;3.40;;
15202;SDS011;7702;51.046;5.184;2023-03-11T04:42:34;6.13;;;2.53;;
15202;SDS011;7702;51.046;5.184;2023-03-11T04:45:00;9.50;;;3.37;;
15202;SDS011;7702;51.046;5.184;2023-03-11T04:47:26;7.20;;;3.10;;
15202;SDS011;7702;51.046;5.184;2023-03-11T04:49:52;6.80;;;2.97;;
15202;SDS011;7702;51.046;5.184;2023-03-11T04:52:20;7.17;;;2.70;;
15202;SDS011;7702;51.046;5.184;2023-03-11T04:54:46;8.43;;;3.20;;
15202;SDS011;7702;51.046;5.184;2023-03-11T04:57:12;8.20;;;3.10;;
15202;SDS011;7702;51.046;5.184;2023-03-11T04:59:38;6.10;;;2.83;;
15202;SDS011;7702;51.046;5.184;2023-03-11T05:02:03;6.00;;;3.80;;
15202;SDS011;7702;51.046;5.184;2023-03-11T05:04:29;7.73;;;3.13;;
15202;SDS011;7702;51.046;5.184;2023-03-11T05:06:55;5.70;;;3.37;;
15202;SDS011;7702;51.046;5.184;2023-03-11T05:09:21;5.70;;;2.97;;
15202;SDS011;7702;51.046;5.184;2023-03-11T05:11:46;5.60;;;3.43;;
15202;SDS011;7702;51.046;5.184;2023-03-11T05:14:12;7.37;;;3.07;;
15202;SDS011;7702;51.046;5.184;2023-03-11T05:16:38;9.30;;;3.87;;
15202;SDS011;7702;51.046;5.184;2023-03-11T05:19:03;15.43;;;4.70;;
15202;SDS011;7702;51.046;5.184;2023-03-11T05:21:49;10.17;;;3.33;;
15202;SDS011;7702;51.046;5.184;2023-03-11T05:24:15;6.00;;;3.73;;
15202;SDS011;7702;51.046;5.184;2023-03-11T05:26:40;9.07;;;3.70;;
15202;SDS011;7702;51.046;5.184;2023-03-11T05:29:06;6.17;;;4.07;;
15202;SDS011;7702;51.046;5.184;2023-03-11T05:31:32;7.13;;;4.37;;
15202;SDS011;7702;51.046;5.184;2023-03-11T05:33:58;5.77;;;3.67;;
15202;SDS011;7702;51.046;5.184;2023-03-11T05:36:24;7.47;;;4.00;;
15202;SDS011;7702;51.046;5.184;2023-03-11T05:38:49;10.53;;;3.90;;
15202;SDS011;7702;51.046;5.184;2023-03-11T05:41:17;5.37;;;3.80;;
15202;SDS011;7702;51.046;5.184;2023-03-11T05:43:43;9.03;;;4.60;;
15202;SDS011;7702;51.046;5.184;2023-03-11T05:46:09;6.70;;;4.10;;
15202;SDS011;7702;51.046;5.184;2023-03-11T05:48:35;7.30;;;4.63;;
15202;SDS011;7702;51.046;5.184;2023-03-11T05:51:05;7.27;;;4.97;;
15202;SDS011;7702;51.046;5.184;2023-03-11T05:53:31;7.60;;;4.73;;
15202;SDS011;7702;51.046;5.184;2023-03-11T05:55:57;11.83;;;4.93;;
15202;SDS011;7702;51.046;5.184;2023-03-11T05:58:24;5.27;;;4.27;;
15202;SDS011;7702;51.046;5.184;2023-03-11T06:00:49;6.77;;;5.13;;
15202;SDS011;7702;51.046;5.184;2023-03-11T06:03:15;6.53;;;4.50;;
15202;SDS011;7702;51.046;5.184;2023-03-11T06:05:44;5.33;;;4.30;;
15202;SDS011;7702;51.046;5.184;2023-03-11T06:08:11;8.40;;;4.83;;
15202;SDS011;7702;51.046;5.184;2023-03-11T06:10:37;7.70;;;5.17;;
15202;SDS011;7702;51.046;5.184;2023-03-11T06:13:02;6.83;;;4.50;;
15202;SDS011;7702;51.046;5.184;2023-03-11T06:15:28;6.37;;;4.63;;
15202;SDS011;7702;51.046;5.184;2023-03-11T06:17:54;10.40;;;6.23;;
15202;SDS011;7702;51.046;5.184;2023-03-11T06:20:20;6.30;;;5.03;;
15202;SDS011;7702;51.046;5.184;2023-03-11T06:22:48;10.70;;;5.13;;
15202;SDS011;7702;51.046;5.184;2023-03-11T06:25:15;10.57;;;5.50;;
15202;SDS011;7702;51.046;5.184;2023-03-11T06:27:41;10.57;;;5.07;;
15202;SDS011;7702;51.046;5.184;2023-03-11T06:30:08;11.47;;;5.63;;
15202;SDS011;7702;51.046;5.184;2023-03-11T06:32:35;12.83;;;6.23;;
15202;SDS011;7702;51.046;5.184;2023-03-11T06:35:01;8.17;;;5.43;;
15202;SDS011;7702;51.046;5.184;2023-03-11T06:37:30;7.37;;;5.50;;
15202;SDS011;7702;51.046;5.184;2023-03-11T06:39:55;12.67;;;5.37;;
15202;SDS011;7702;51.046;5.184;2023-03-11T06:42:21;7.20;;;5.13;;
15202;SDS011;7702;51.046;5.184;2023-03-11T06:44:48;13.20;;;5.80;;
15202;SDS011;7702;51.046;5.184;2023-03-11T06:47:14;11.33;;;5.70;;
15202;SDS011;7702;51.046;5.184;2023-03-11T06:49:40;8.63;;;4.80;;
15202;SDS011;7702;51.046;5.184;2023-03-11T06:52:07;7.20;;;5.87;;
15202;SDS011;7702;51.046;5.184;2023-03-11T06:54:33;11.17;;;6.03;;
15202;SDS011;7702;51.046;5.184;2023-03-11T06:56:59;12.60;;;6.90;;
15202;SDS011;7702;51.046;5.184;2023-03-11T06:59:25;11.57;;;5.83;;
15202;SDS011;7702;51.046;5.184;2023-03-11T07:01:52;9.63;;;6.23;;
15202;SDS011;7702;51.046;5.184;2023-03-11T07:04:19;12.97;;;5.73;;
15202;SDS011;7702;51.046;5.184;2023-03-11T07:06:44;16.10;;;6.73;;
15202;SDS011;7702;51.046;5.184;2023-03-11T07:09:10;11.40;;;6.93;;
15202;SDS011;7702;51.046;5.184;2023-03-11T07:11:36;10.73;;;7.63;;
15202;SDS011;7702;51.046;5.184;2023-03-11T07:14:02;15.00;;;7.40;;
15202;SDS011;7702;51.046;5.184;2023-03-11T07:16:28;12.37;;;7.77;;
15202;SDS011;7702;51.046;5.184;2023-03-11T07:18:58;13.23;;;8.03;;
15202;SDS011;7702;51.046;5.184;2023-03-11T07:21:27;11.00;;;7.73;;
15202;SDS011;7702;51.046;5.184;2023-03-11T07:23:54;11.63;;;6.97;;
15202;SDS011;7702;51.046;5.184;2023-03-11T07:26:21;9.27;;;7.40;;
15202;SDS011;7702;51.046;5.184;2023-03-11T07:28:48;14.87;;;7.40;;
15202;SDS011;7702;51.046;5.184;2023-03-11T07:31:21;14.63;;;7.40;;
15202;SDS011;7702;51.046;5.184;2023-03-11T07:33:48;14.30;;;8.13;;
15202;SDS011;7702;51.046;5.184;2023-03-11T07:36:15;12.43;;;7.80;;
15202;SDS011;7702;51.046;5.184;2023-03-11T07:38:42;11.83;;;7.30;;
15202;SDS011;7702;51.046;5.184;2023-03-11T07:41:09;12.70;;;7.27;;
15202;SDS011;7702;51.046;5.184;2023-03-11T07:43:35;10.47;;;7.53;;
15202;SDS011;7702;51.046;5.184;2023-03-11T07:46:03;11.07;;;7.43;;
15202;SDS011;7702;51.046;5.184;2023-03-11T07:48:29;11.27;;;7.33;;
15202;SDS011;7702;51.046;5.184;2023-03-11T07:50:58;16.60;;;8.70;;
15202;SDS011;7702;51.046;5.184;2023-03-11T07:53:25;11.67;;;8.20;;
15202;SDS011;7702;51.046;5.184;2023-03-11T07:55:55;17.37;;;8.80;;
15202;SDS011;7702;51.046;5.184;2023-03-11T07:58:22;14.60;;;7.73;;
15202;SDS011;7702;51.046;5.184;2023-03-11T08:00:48;10.67;;;7.63;;
15202;SDS011;7702;51.046;5.184;2023-03-11T08:03:14;9.03;;;7.03;;
15202;SDS011;7702;51.046;5.184;2023-03-11T08:05:40;10.83;;;7.40;;
15202;SDS011;7702;51.046;5.184;2023-03-11T08:08:06;11.37;;;7.83;;
15202;SDS011;7702;51.046;5.184;2023-03-11T08:10:31;12.60;;;8.17;;
15202;SDS011;7702;51.046;5.184;2023-03-11T08:13:00;14.30;;;8.30;;
15202;SDS011;7702;51.046;5.184;2023-03-11T08:15:25;12.13;;;8.10;;
15202;SDS011;7702;51.046;5.184;2023-03-11T08:17:51;11.17;;;7.63;;
15202;SDS011;7702;51.046;5.184;2023-03-11T08:20:17;12.17;;;7.00;;
15202;SDS011;7702;51.046;5.184;2023-03-11T08:22:43;10.77;;;7.43;;
15202;SDS011;7702;51.046;5.184;2023-03-11T08:25:08;13.63;;;7.33;;
15202;SDS011;7702;51.046;5.184;2023-03-11T08:27:34;10.20;;;6.70;;
15202;SDS011;7702;51.046;5.184;2023-03-11T08:30:00;9.00;;;7.20;;
15202;SDS011;7702;51.046;5.184;2023-03-11T08:32:25;12.80;;;6.23;;
15202;SDS011;7702;51.046;5.184;2023-03-11T08:34:55;10.77;;;6.57;;
15202;SDS011;7702;51.046;5.184;2023-03-11T08:37:20;13.63;;;8.30;;
15202;SDS011;7702;51.046;5.184;2023-03-11T08:39:46;12.53;;;6.57;;
15202;SDS011;7702;51.046;5.184;2023-03-11T08:42:12;13.93;;;7.30;;
15202;SDS011;7702;51.046;5.184;2023-03-11T08:44:38;10.23;;;6.73;;
15202;SDS011;7702;51.046;5.184;2023-03-11T08:47:03;9.17;;;6.23;;
15202;SDS011;7702;51.046;5.184;2023-03-11T08:49:29;11.47;;;6.53;;
15202;SDS011;7702;51.046;5.184;2023-03-11T08:51:55;11.23;;;6.10;;
15202;SDS011;7702;51.046;5.184;2023-03-11T08:54:21;8.10;;;6.13;;
15202;SDS011;7702;51.046;5.184;2023-03-11T08:56:46;11.00;;;6.20;;
15202;SDS011;7702;51.046;5.184;2023-03-11T08:59:12;10.80;;;6.20;;
15202;SDS011;7702;51.046;5.184;2023-03-11T09:01:38;9.50;;;5.43;;
15202;SDS011;7702;51.046;5.184;2023-03-11T09:04:05;6.77;;;4.17;;
15202;SDS011;7702;51.046;5.184;2023-03-11T09:06:31;7.23;;;4.43;;
15202;SDS011;7702;51.046;5.184;2023-03-11T09:08:57;7.47;;;4.30;;
15202;SDS011;7702;51.046;5.184;2023-03-11T09:11:23;8.83;;;4.30;;
15202;SDS011;7702;51.046;5.184;2023-03-11T09:13:49;5.40;;;3.20;;
15202;SDS011;7702;51.046;5.184;2023-03-11T09:16:19;5.80;;;3.40;;
15202;SDS011;7702;51.046;5.184;2023-03-11T09:18:47;7.23;;;2.00;;
15202;SDS011;7702;51.046;5.184;2023-03-11T09:21:12;6.27;;;2.33;;
15202;SDS011;7702;51.046;5.184;2023-03-11T09:23:38;5.27;;;1.83;;
15202;SDS011;7702;51.046;5.184;2023-03-11T09:26:05;3.63;;;1.90;;
15202;SDS011;7702;51.046;5.184;2023-03-11T09:28:30;5.40;;;2.50;;
15202;SDS011;7702;51.046;5.184;2023-03-11T09:30:56;8.17;;;2.13;;
15202;SDS011;7702;51.046;5.184;2023-03-11T09:33:22;4.93;;;1.73;;
15202;SDS011;7702;51.046;5.184;2023-03-11T09:35:48;3.20;;;1.60;;
15202;SDS011;7702;51.046;5.184;2023-03-11T09:38:14;4.47;;;1.80;;
15202;SDS011;7702;51.046;5.184;2023-03-11T09:40:51;4.80;;;2.23;;
15202;SDS011;7702;51.046;5.184;2023-03-11T09:48:54;5.17;;;1.53;;
15202;SDS011;7702;51.046;5.184;2023-03-11T09:52:02;2.50;;;1.73;;
15202;SDS011;7702;51.046;5.184;2023-03-11T09:54:35;6.40;;;1.37;;
15202;SDS011;7702;51.046;5.184;2023-03-11T09:57:03;5.03;;;1.30;;
15202;SDS011;7702;51.046;5.184;2023-03-11T09:59:32;2.60;;;1.40;;
15202;SDS011;7702;51.046;5.184;2023-03-11T10:02:01;4.33;;;2.10;;
15202;SDS011;7702;51.046;5.184;2023-03-11T10:04:42;3.13;;;1.40;;
15202;SDS011;7702;51.046;5.184;2023-03-11T10:07:29;1.80;;;1.10;;
15202;SDS011;7702;51.046;5.184;2023-03-11T10:10:00;2.30;;;1.53;;
15202;SDS011;7702;51.046;5.184;2023-03-11T10:17:48;3.60;;;1.30;;
15202;SDS011;7702;51.046;5.184;2023-03-11T10:20:30;3.83;;;2.00;;
15202;SDS011;7702;51.046;5.184;2023-03-11T10:26:07;4.13;;;1.10;;
15202;SDS011;7702;51.046;5.184;2023-03-11T10:33:57;3.70;;;1.87;;
15202;SDS011;7702;51.046;5.184;2023-03-11T10:36:38;3.50;;;1.40;;
15202;SDS011;7702;51.046;5.184;2023-03-11T10:39:28;5.70;;;1.80;;
15202;SDS011;7702;51.046;5.184;2023-03-11T10:41:56;3.77;;;1.67;;
15202;SDS011;7702;51.046;5.184;2023-03-11T10:44:31;3.43;;;1.17;;
15202;SDS011;7702;51.046;5.184;2023-03-11T10:47:04;3.53;;;1.03;;
15202;SDS011;7702;51.046;5.184;2023-03-11T10:49:30;4.07;;;1.30;;
15202;SDS011;7702;51.046;5.184;2023-03-11T10:51:57;5.63;;;1.40;;
15202;SDS011;7702;51.046;5.184;2023-03-11T10:57:04;3.07;;;1.07;;
15202;SDS011;7702;51.046;5.184;2023-03-11T10:59:46;5.43;;;1.60;;
15202;SDS011;7702;51.046;5.184;2023-03-11T11:02:27;5.47;;;1.23;;
15202;SDS011;7702;51.046;5.184;2023-03-11T11:07:41;1.37;;;1.03;;
15202;SDS011;7702;51.046;5.184;2023-03-11T11:10:22;3.73;;;1.47;;
15202;SDS011;7702;51.046;5.184;2023-03-11T11:15:39;3.03;;;1.23;;
15202;SDS011;7702;51.046;5.184;2023-03-11T11:18:14;3.73;;;1.50;;
15202;SDS011;7702;51.046;5.184;2023-03-11T11:26:02;2.57;;;1.40;;
15202;SDS011;7702;51.046;5.184;2023-03-11T11:28:31;4.27;;;2.07;;
15202;SDS011;7702;51.046;5.184;2023-03-11T11:31:00;2.70;;;1.70;;
15202;SDS011;7702;51.046;5.184;2023-03-11T11:33:31;3.67;;;1.53;;
15202;SDS011;7702;51.046;5.184;2023-03-11T11:36:10;5.37;;;2.10;;
15202;SDS011;7702;51.046;5.184;2023-03-11T11:38:39;2.53;;;1.43;;
15202;SDS011;7702;51.046;5.184;2023-03-11T11:41:05;5.37;;;1.70;;
15202;SDS011;7702;51.046;5.184;2023-03-11T11:43:35;4.17;;;1.30;;
15202;SDS011;7702;51.046;5.184;2023-03-11T11:46:06;3.97;;;1.30;;
15202;SDS011;7702;51.046;5.184;2023-03-11T11:48:55;6.03;;;1.53;;
15202;SDS011;7702;51.046;5.184;2023-03-11T11:51:30;6.73;;;4.13;;
15202;SDS011;7702;51.046;5.184;2023-03-11T11:56:31;10.43;;;9.07;;
15202;SDS011;7702;51.046;5.184;2023-03-11T11:58:57;3.87;;;1.60;;
15202;SDS011;7702;51.046;5.184;2023-03-11T12:06:26;5.67;;;1.70;;
15202;SDS011;7702;51.046;5.184;2023-03-11T12:11:56;5.13;;;1.50;;
15202;SDS011;7702;51.046;5.184;2023-03-11T12:17:12;5.40;;;1.23;;
15202;SDS011;7702;51.046;5.184;2023-03-11T12:22:36;2.33;;;0.83;;
15202;SDS011;7702;51.046;5.184;2023-03-11T12:25:25;4.60;;;1.27;;
15202;SDS011;7702;51.046;5.184;2023-03-11T12:30:39;4.40;;;1.10;;
15202;SDS011;7702;51.046;5.184;2023-03-11T12:33:33;2.93;;;1.00;;
15202;SDS011;7702;51.046;5.184;2023-03-11T12:36:06;2.17;;;1.10;;
15202;SDS011;7702;51.046;5.184;2023-03-11T12:38:52;1.93;;;0.73;;
15202;SDS011;7702;51.046;5.184;2023-03-11T12:52:00;2.30;;;1.00;;
15202;SDS011;7702;51.046;5.184;2023-03-11T12:54:35;5.27;;;2.23;;
15202;SDS011;7702;51.046;5.184;2023-03-11T13:05:04;3.00;;;1.07;;
15202;SDS011;7702;51.046;5.184;2023-03-11T13:10:13;3.43;;;1.20;;
15202;SDS011;7702;51.046;5.184;2023-03-11T13:13:00;5.33;;;1.23;;
15202;SDS011;7702;51.046;5.184;2023-03-11T13:15:30;2.13;;;1.10;;
15202;SDS011;7702;51.046;5.184;2023-03-11T13:25:56;2.33;;;1.00;;
15202;SDS011;7702;51.046;5.184;2023-03-11T13:32:51;2.80;;;1.10;;
15202;SDS011;7702;51.046;5.184;2023-03-11T13:35:09;2.67;;;1.90;;
15202;SDS011;7702;51.046;5.184;2023-03-11T13:40:50;3.83;;;1.13;;
15202;SDS011;7702;51.046;5.184;2023-03-11T13:43:23;3.13;;;1.30;;
15202;SDS011;7702;51.046;5.184;2023-03-11T13:48:45;3.57;;;1.07;;
15202;SDS011;7702;51.046;5.184;2023-03-11T13:51:18;2.63;;;1.20;;
15202;SDS011;7702;51.046;5.184;2023-03-11T13:53:55;1.73;;;0.97;;
15202;SDS011;7702;51.046;5.184;2023-03-11T13:56:27;3.00;;;1.70;;
15202;SDS011;7702;51.046;5.184;2023-03-11T13:59:15;4.87;;;1.67;;
15202;SDS011;7702;51.046;5.184;2023-03-11T14:01:51;1.50;;;1.20;;
15202;SDS011;7702;51.046;5.184;2023-03-11T14:04:25;4.63;;;1.30;;
15202;SDS011;7702;51.046;5.184;2023-03-11T14:06:56;3.17;;;1.67;;
15202;SDS011;7702;51.046;5.184;2023-03-11T14:09:24;3.27;;;1.27;;
15202;SDS011;7702;51.046;5.184;2023-03-11T14:11:52;4.87;;;1.37;;
15202;SDS011;7702;51.046;5.184;2023-03-11T14:14:29;1.47;;;1.03;;
15202;SDS011;7702;51.046;5.184;2023-03-11T14:16:59;3.43;;;1.30;;
15202;SDS011;7702;51.046;5.184;2023-03-11T14:19:28;4.43;;;1.10;;
15202;SDS011;7702;51.046;5.184;2023-03-11T14:21:54;2.60;;;1.07;;
15202;SDS011;7702;51.046;5.184;2023-03-11T14:24:24;3.07;;;1.30;;
15202;SDS011;7702;51.046;5.184;2023-03-11T14:26:52;5.20;;;0.97;;
15202;SDS011;7702;51.046;5.184;2023-03-11T14:31:56;7.53;;;5.37;;
15202;SDS011;7702;51.046;5.184;2023-03-11T14:34:23;2.77;;;1.03;;
15202;SDS011;7702;51.046;5.184;2023-03-11T14:36:58;3.50;;;3.03;;
15202;SDS011;7702;51.046;5.184;2023-03-11T14:39:31;8.80;;;8.10;;
15202;SDS011;7702;51.046;5.184;2023-03-11T14:42:06;2.13;;;1.27;;
15202;SDS011;7702;51.046;5.184;2023-03-11T14:44:42;2.33;;;1.00;;
15202;SDS011;7702;51.046;5.184;2023-03-11T14:47:18;3.47;;;0.90;;
15202;SDS011;7702;51.046;5.184;2023-03-11T14:50:25;3.90;;;1.00;;
15202;SDS011;7702;51.046;5.184;2023-03-11T14:53:05;2.10;;;1.07;;
15202;SDS011;7702;51.046;5.184;2023-03-11T15:03:36;2.20;;;0.87;;
15202;SDS011;7702;51.046;5.184;2023-03-11T15:06:15;2.83;;;1.07;;
15202;SDS011;7702;51.046;5.184;2023-03-11T15:08:46;28.83;;;24.00;;
15202;SDS011;7702;51.046;5.184;2023-03-11T15:13:48;6.00;;;3.70;;
15202;SDS011;7702;51.046;5.184;2023-03-11T15:18:57;3.37;;;1.50;;
15202;SDS011;7702;51.046;5.184;2023-03-11T15:21:24;2.57;;;1.23;;
15202;SDS011;7702;51.046;5.184;2023-03-11T15:24:14;3.23;;;1.30;;
15202;SDS011;7702;51.046;5.184;2023-03-11T15:26:50;3.30;;;1.17;;
15202;SDS011;7702;51.046;5.184;2023-03-11T15:29:22;4.87;;;2.20;;
15202;SDS011;7702;51.046;5.184;2023-03-11T15:31:51;4.30;;;3.83;;
15202;SDS011;7702;51.046;5.184;2023-03-11T15:41:45;4.77;;;1.57;;
15202;SDS011;7702;51.046;5.184;2023-03-11T15:44:23;2.70;;;0.80;;
15202;SDS011;7702;51.046;5.184;2023-03-11T15:46:49;1.17;;;1.00;;
15202;SDS011;7702;51.046;5.184;2023-03-11T15:49:15;3.70;;;1.30;;
15202;SDS011;7702;51.046;5.184;2023-03-11T15:51:41;3.47;;;1.30;;
15202;SDS011;7702;51.046;5.184;2023-03-11T15:54:06;2.57;;;1.20;;
15202;SDS011;7702;51.046;5.184;2023-03-11T15:56:32;1.70;;;0.87;;
15202;SDS011;7702;51.046;5.184;2023-03-11T15:58:58;1.87;;;0.87;;
15202;SDS011;7702;51.046;5.184;2023-03-11T16:01:24;1.17;;;0.90;;
15202;SDS011;7702;51.046;5.184;2023-03-11T16:03:53;4.63;;;1.13;;
15202;SDS011;7702;51.046;5.184;2023-03-11T16:06:19;2.90;;;1.53;;
15202;SDS011;7702;51.046;5.184;2023-03-11T16:08:48;4.13;;;1.90;;
15202;SDS011;7702;51.046;5.184;2023-03-11T16:11:14;3.80;;;1.60;;
15202;SDS011;7702;51.046;5.184;2023-03-11T16:13:42;6.90;;;3.83;;
15202;SDS011;7702;51.046;5.184;2023-03-11T16:16:11;9.13;;;6.43;;
15202;SDS011;7702;51.046;5.184;2023-03-11T16:18:40;7.40;;;4.60;;
15202;SDS011;7702;51.046;5.184;2023-03-11T16:21:07;3.43;;;3.13;;
15202;SDS011;7702;51.046;5.184;2023-03-11T16:23:47;3.90;;;2.57;;
15202;SDS011;7702;51.046;5.184;2023-03-11T16:26:13;5.43;;;2.77;;
15202;SDS011;7702;51.046;5.184;2023-03-11T16:28:40;6.57;;;4.10;;
15202;SDS011;7702;51.046;5.184;2023-03-11T16:31:06;3.30;;;1.43;;
15202;SDS011;7702;51.046;5.184;2023-03-11T16:33:33;5.17;;;1.17;;
15202;SDS011;7702;51.046;5.184;2023-03-11T16:36:02;3.20;;;1.10;;
15202;SDS011;7702;51.046;5.184;2023-03-11T16:38:29;2.73;;;1.10;;
15202;SDS011;7702;51.046;5.184;2023-03-11T16:40:59;3.97;;;1.30;;
15202;SDS011;7702;51.046;5.184;2023-03-11T16:43:27;2.03;;;1.00;;
15202;SDS011;7702;51.046;5.184;2023-03-11T16:45:54;3.37;;;1.13;;
15202;SDS011;7702;51.046;5.184;2023-03-11T16:48:20;4.03;;;1.30;;
15202;SDS011;7702;51.046;5.184;2023-03-11T16:50:47;3.43;;;2.77;;
15202;SDS011;7702;51.046;5.184;2023-03-11T16:53:13;2.03;;;1.20;;
15202;SDS011;7702;51.046;5.184;2023-03-11T16:55:41;5.97;;;1.20;;
15202;SDS011;7702;51.046;5.184;2023-03-11T16:58:09;4.03;;;1.17;;
15202;SDS011;7702;51.046;5.184;2023-03-11T17:00:35;3.10;;;1.07;;
15202;SDS011;7702;51.046;5.184;2023-03-11T17:03:01;2.00;;;1.00;;
15202;SDS011;7702;51.046;5.184;2023-03-11T17:05:27;11.33;;;5.30;;
15202;SDS011;7702;51.046;5.184;2023-03-11T17:07:54;2.77;;;1.67;;
15202;SDS011;7702;51.046;5.184;2023-03-11T17:10:24;7.83;;;2.53;;
15202;SDS011;7702;51.046;5.184;2023-03-11T17:12:50;3.63;;;1.50;;